sensor_id;sensor_type;location;lat;lon;timestamp;pressure;altitude;pressure_sealevel;temperature;humidity
76973;BME280;65907;53.640;10.050;2024-02-26T00:02:10;99615.66;;;22.44;38.70
76973;BME280;65907;53.640;10.050;2024-02-26T00:04:35;99616.97;;;22.40;38.60
76973;BME280;65907;53.640;10.050;2024-02-26T00:07:00;99609.41;;;22.37;38.61
76973;BME280;65907;53.640;10.050;2024-02-26T00:09:28;99613.84;;;22.37;38.66
76973;BME280;65907;53.640;10.050;2024-02-26T00:11:53;99610.41;;;22.36;38.70
76973;BME280;65907;53.640;10.050;2024-02-26T00:14:20;99614.00;;;22.35;38.46
76973;BME280;65907;53.640;10.050;2024-02-26T00:16:45;99609.75;;;22.34;38.55
76973;BME280;65907;53.640;10.050;2024-02-26T00:19:10;99612.38;;;22.34;38.88
76973;BME280;65907;53.640;10.050;2024-02-26T00:21:39;99615.16;;;22.32;38.55
76973;BME280;65907;53.640;10.050;2024-02-26T00:24:04;99605.81;;;22.30;38.72
76973;BME280;65907;53.640;10.050;2024-02-26T00:26:30;99607.78;;;22.28;38.47
76973;BME280;65907;53.640;10.050;2024-02-26T00:28:57;99606.00;;;22.28;38.22
76973;BME280;65907;53.640;10.050;2024-02-26T00:31:22;99609.75;;;22.26;38.62
76973;BME280;65907;53.640;10.050;2024-02-26T00:33:52;99602.06;;;22.24;38.36
76973;BME280;65907;53.640;10.050;2024-02-26T00:36:17;99597.00;;;22.23;38.54
76973;BME280;65907;53.640;10.050;2024-02-26T00:38:43;99598.00;;;22.22;38.38
76973;BME280;65907;53.640;10.050;2024-02-26T00:41:09;99600.75;;;22.20;38.35
76973;BME280;65907;53.640;10.050;2024-02-26T00:43:35;99599.44;;;22.16;38.61
76973;BME280;65907;53.640;10.050;2024-02-26T00:46:00;99594.38;;;22.14;38.32
76973;BME280;65907;53.640;10.050;2024-02-26T00:48:25;99596.19;;;22.14;38.52
76973;BME280;65907;53.640;10.050;2024-02-26T00:50:51;99604.19;;;22.12;38.45
76973;BME280;65907;53.640;10.050;2024-02-26T00:53:19;99604.38;;;22.11;38.42
76973;BME280;65907;53.640;10.050;2024-02-26T00:55:47;99599.28;;;22.09;38.34
76973;BME280;65907;53.640;10.050;2024-02-26T00:58:12;99597.81;;;22.06;38.12
76973;BME280;65907;53.640;10.050;2024-02-26T01:00:37;99594.38;;;22.06;38.57
76973;BME280;65907;53.640;10.050;2024-02-26T01:03:03;99599.59;;;22.06;38.57
76973;BME280;65907;53.640;10.050;2024-02-26T01:05:29;99591.09;;;22.04;38.37
76973;BME280;65907;53.640;10.050;2024-02-26T01:07:54;99598.97;;;22.04;38.21
76973;BME280;65907;53.640;10.050;2024-02-26T01:10:20;99597.47;;;22.01;38.61
76973;BME280;65907;53.640;10.050;2024-02-26T01:12:45;99604.53;;;22.01;38.56
76973;BME280;65907;53.640;10.050;2024-02-26T01:15:10;99606.47;;;21.99;38.47
76973;BME280;65907;53.640;10.050;2024-02-26T01:17:35;99602.22;;;21.98;38.50
76973;BME280;65907;53.640;10.050;2024-02-26T01:20:00;99609.25;;;21.97;38.59
76973;BME280;65907;53.640;10.050;2024-02-26T01:22:26;99609.44;;;21.96;38.43
76973;BME280;65907;53.640;10.050;2024-02-26T01:24:51;99612.03;;;21.96;38.33
76973;BME280;65907;53.640;10.050;2024-02-26T01:27:19;99610.75;;;21.91;38.45
76973;BME280;65907;53.640;10.050;2024-02-26T01:29:51;99608.28;;;21.90;38.75
76973;BME280;65907;53.640;10.050;2024-02-26T01:32:16;99605.66;;;21.90;38.68
76973;BME280;65907;53.640;10.050;2024-02-26T01:34:42;99604.81;;;21.89;38.34
76973;BME280;65907;53.640;10.050;2024-02-26T01:37:07;99604.16;;;21.87;38.43
76973;BME280;65907;53.640;10.050;2024-02-26T01:39:32;99599.75;;;21.88;38.59
76973;BME280;65907;53.640;10.050;2024-02-26T01:42:00;99595.66;;;21.85;38.66
76973;BME280;65907;53.640;10.050;2024-02-26T01:44:26;99604.50;;;21.84;38.51
76973;BME280;65907;53.640;10.050;2024-02-26T01:46:51;99606.44;;;21.82;38.37
76973;BME280;65907;53.640;10.050;2024-02-26T01:49:18;99606.44;;;21.82;38.31
76973;BME280;65907;53.640;10.050;2024-02-26T01:51:43;99610.88;;;21.82;38.36
76973;BME280;65907;53.640;10.050;2024-02-26T01:54:09;99612.00;;;21.79;38.30
76973;BME280;65907;53.640;10.050;2024-02-26T01:56:35;99609.41;;;21.79;38.20
76973;BME280;65907;53.640;10.050;2024-02-26T01:59:01;99618.38;;;21.76;38.39
76973;BME280;65907;53.640;10.050;2024-02-26T02:01:27;99616.41;;;21.78;38.20
76973;BME280;65907;53.640;10.050;2024-02-26T02:03:58;99613.97;;;21.77;38.34
76973;BME280;65907;53.640;10.050;2024-02-26T02:06:24;99614.94;;;21.76;38.44
76973;BME280;65907;53.640;10.050;2024-02-26T02:08:49;99617.56;;;21.76;38.32
76973;BME280;65907;53.640;10.050;2024-02-26T02:11:15;99606.59;;;21.72;38.21
76973;BME280;65907;53.640;10.050;2024-02-26T02:13:41;99609.38;;;21.71;38.38
76973;BME280;65907;53.640;10.050;2024-02-26T02:16:06;99608.56;;;21.70;38.28
76973;BME280;65907;53.640;10.050;2024-02-26T02:18:32;99612.16;;;21.69;38.42
76973;BME280;65907;53.640;10.050;2024-02-26T02:20:59;99613.28;;;21.67;38.37
76973;BME280;65907;53.640;10.050;2024-02-26T02:23:26;99610.66;;;21.67;38.47
76973;BME280;65907;53.640;10.050;2024-02-26T02:25:52;99610.66;;;21.67;38.19
76973;BME280;65907;53.640;10.050;2024-02-26T02:28:18;99613.44;;;21.65;38.49
76973;BME280;65907;53.640;10.050;2024-02-26T02:30:43;99616.19;;;21.63;38.31
76973;BME280;65907;53.640;10.050;2024-02-26T02:33:09;99611.13;;;21.62;38.45
76973;BME280;65907;53.640;10.050;2024-02-26T02:35:36;99601.66;;;21.61;38.27
76973;BME280;65907;53.640;10.050;2024-02-26T02:38:02;99608.66;;;21.60;38.23
76973;BME280;65907;53.640;10.050;2024-02-26T02:40:28;99600.16;;;21.58;38.21
76973;BME280;65907;53.640;10.050;2024-02-26T02:42:53;99607.19;;;21.58;38.23
76973;BME280;65907;53.640;10.050;2024-02-26T02:45:18;99612.44;;;21.58;38.05
76973;BME280;65907;53.640;10.050;2024-02-26T02:47:43;99602.25;;;21.55;37.93
76973;BME280;65907;53.640;10.050;2024-02-26T02:50:08;99605.72;;;21.55;38.47
76973;BME280;65907;53.640;10.050;2024-02-26T02:52:34;99610.09;;;21.55;38.23
76973;BME280;65907;53.640;10.050;2024-02-26T02:54:59;99607.66;;;21.53;38.29
76973;BME280;65907;53.640;10.050;2024-02-26T02:57:24;99613.22;;;21.50;38.21
76973;BME280;65907;53.640;10.050;2024-02-26T02:59:50;99621.88;;;21.51;38.41
76973;BME280;65907;53.640;10.050;2024-02-26T03:02:15;99626.31;;;21.50;38.39
76973;BME280;65907;53.640;10.050;2024-02-26T03:04:40;99622.38;;;21.46;38.33
76973;BME280;65907;53.640;10.050;2024-02-26T03:07:05;99618.91;;;21.45;38.19
76973;BME280;65907;53.640;10.050;2024-02-26T03:09:31;99624.16;;;21.45;38.07
76973;BME280;65907;53.640;10.050;2024-02-26T03:11:56;99627.88;;;21.43;38.10
76973;BME280;65907;53.640;10.050;2024-02-26T03:14:21;99623.63;;;21.42;38.44
76973;BME280;65907;53.640;10.050;2024-02-26T03:16:46;99625.59;;;21.40;38.18
76973;BME280;65907;53.640;10.050;2024-02-26T03:19:14;99628.06;;;21.41;38.27
76973;BME280;65907;53.640;10.050;2024-02-26T03:21:39;99629.84;;;21.41;38.42
76973;BME280;65907;53.640;10.050;2024-02-26T03:24:07;99625.09;;;21.36;37.90
76973;BME280;65907;53.640;10.050;2024-02-26T03:26:35;99624.94;;;21.38;38.26
76973;BME280;65907;53.640;10.050;2024-02-26T03:29:00;99632.78;;;21.38;38.42
76973;BME280;65907;53.640;10.050;2024-02-26T03:31:27;99632.94;;;21.36;38.08
76973;BME280;65907;53.640;10.050;2024-02-26T03:33:52;99636.38;;;21.37;38.35
76973;BME280;65907;53.640;10.050;2024-02-26T03:36:20;99629.81;;;21.32;38.55
76973;BME280;65907;53.640;10.050;2024-02-26T03:38:46;99636.69;;;21.33;37.95
76973;BME280;65907;53.640;10.050;2024-02-26T03:41:12;99631.59;;;21.32;38.32
76973;BME280;65907;53.640;10.050;2024-02-26T03:43:37;99637.00;;;21.30;38.23
76973;BME280;65907;53.640;10.050;2024-02-26T03:46:08;99626.88;;;21.27;38.37
76973;BME280;65907;53.640;10.050;2024-02-26T03:48:34;99630.28;;;21.28;38.37
76973;BME280;65907;53.640;10.050;2024-02-26T03:50:59;99632.75;;;21.29;38.21
76973;BME280;65907;53.640;10.050;2024-02-26T03:53:25;99625.22;;;21.26;38.25
76973;BME280;65907;53.640;10.050;2024-02-26T03:55:50;99626.22;;;21.25;38.14
76973;BME280;65907;53.640;10.050;2024-02-26T03:58:17;99627.00;;;21.26;38.17
76973;BME280;65907;53.640;10.050;2024-02-26T04:00:42;99629.28;;;21.20;38.33
76973;BME280;65907;53.640;10.050;2024-02-26T04:03:07;99631.56;;;21.24;38.11
76973;BME280;65907;53.640;10.050;2024-02-26T04:05:32;99628.44;;;21.20;37.97
76973;BME280;65907;53.640;10.050;2024-02-26T04:07:58;99632.69;;;21.21;38.23
76973;BME280;65907;53.640;10.050;2024-02-26T04:10:23;99638.75;;;21.22;38.41
76973;BME280;65907;53.640;10.050;2024-02-26T04:12:50;99637.44;;;21.17;38.38
76973;BME280;65907;53.640;10.050;2024-02-26T04:15:16;99632.34;;;21.16;38.35
76973;BME280;65907;53.640;10.050;2024-02-26T04:17:41;99642.16;;;21.14;38.16
76973;BME280;65907;53.640;10.050;2024-02-26T04:20:07;99646.09;;;21.18;37.95
76973;BME280;65907;53.640;10.050;2024-02-26T04:22:32;99648.88;;;21.16;38.29
76973;BME280;65907;53.640;10.050;2024-02-26T04:24:58;99650.66;;;21.16;38.06
76973;BME280;65907;53.640;10.050;2024-02-26T04:27:23;99655.88;;;21.16;37.80
76973;BME280;65907;53.640;10.050;2024-02-26T04:29:48;99652.59;;;21.14;38.23
76973;BME280;65907;53.640;10.050;2024-02-26T04:32:13;99660.63;;;21.12;38.10
76973;BME280;65907;53.640;10.050;2024-02-26T04:34:39;99662.09;;;21.15;38.32
76973;BME280;65907;53.640;10.050;2024-02-26T04:37:06;99663.06;;;21.14;38.05
76973;BME280;65907;53.640;10.050;2024-02-26T04:39:31;99662.41;;;21.12;38.25
76973;BME280;65907;53.640;10.050;2024-02-26T04:41:56;99662.41;;;21.12;38.11
76973;BME280;65907;53.640;10.050;2024-02-26T04:44:22;99660.44;;;21.14;38.23
76973;BME280;65907;53.640;10.050;2024-02-26T04:46:47;99663.06;;;21.14;38.27
76973;BME280;65907;53.640;10.050;2024-02-26T04:49:12;99672.06;;;21.11;38.18
76973;BME280;65907;53.640;10.050;2024-02-26T04:51:40;99676.44;;;21.11;37.93
76973;BME280;65907;53.640;10.050;2024-02-26T04:54:05;99678.22;;;21.10;37.96
76973;BME280;65907;53.640;10.050;2024-02-26T04:56:31;99680.50;;;21.05;38.09
76973;BME280;65907;53.640;10.050;2024-02-26T04:58:58;99686.22;;;21.09;38.12
76973;BME280;65907;53.640;10.050;2024-02-26T05:01:23;99686.38;;;21.07;38.24
76973;BME280;65907;53.640;10.050;2024-02-26T05:03:51;99689.81;;;21.08;37.85
76973;BME280;65907;53.640;10.050;2024-02-26T05:06:17;99698.63;;;21.06;38.09
76973;BME280;65907;53.640;10.050;2024-02-26T05:08:42;99707.47;;;21.05;37.88
76973;BME280;65907;53.640;10.050;2024-02-26T05:11:11;99702.22;;;21.05;38.28
76973;BME280;65907;53.640;10.050;2024-02-26T05:13:36;99704.97;;;21.04;38.05
76973;BME280;65907;53.640;10.050;2024-02-26T05:16:02;99705.16;;;21.02;38.32
76973;BME280;65907;53.640;10.050;2024-02-26T05:18:27;99705.16;;;21.02;38.13
76973;BME280;65907;53.640;10.050;2024-02-26T05:20:53;99699.94;;;21.02;37.87
76973;BME280;65907;53.640;10.050;2024-02-26T05:23:18;99699.25;;;21.00;38.02
76973;BME280;65907;53.640;10.050;2024-02-26T05:25:43;99698.56;;;20.98;38.12
76973;BME280;65907;53.640;10.050;2024-02-26T05:28:10;99700.25;;;20.99;38.25
76973;BME280;65907;53.640;10.050;2024-02-26T05:30:36;99702.69;;;21.01;38.20
76973;BME280;65907;53.640;10.050;2024-02-26T05:33:03;99706.28;;;21.00;37.97
76973;BME280;65907;53.640;10.050;2024-02-26T05:35:28;99700.91;;;21.01;37.96
76973;BME280;65907;53.640;10.050;2024-02-26T05:37:56;99707.38;;;20.97;38.20
76973;BME280;65907;53.640;10.050;2024-02-26T05:40:21;99714.25;;;20.98;38.12
76973;BME280;65907;53.640;10.050;2024-02-26T05:42:46;99716.38;;;20.95;37.84
76973;BME280;65907;53.640;10.050;2024-02-26T05:45:12;99711.81;;;20.97;37.98
76973;BME280;65907;53.640;10.050;2024-02-26T05:47:39;99714.41;;;20.97;38.07
76973;BME280;65907;53.640;10.050;2024-02-26T05:50:08;99712.91;;;20.94;38.05
76973;BME280;65907;53.640;10.050;2024-02-26T05:52:35;99718.47;;;20.91;38.26
76973;BME280;65907;53.640;10.050;2024-02-26T05:55:00;99716.97;;;20.88;37.96
76973;BME280;65907;53.640;10.050;2024-02-26T05:57:25;99722.56;;;20.94;37.99
76973;BME280;65907;53.640;10.050;2024-02-26T05:59:50;99722.72;;;20.92;38.10
76973;BME280;65907;53.640;10.050;2024-02-26T06:02:16;99719.59;;;20.88;37.84
76973;BME280;65907;53.640;10.050;2024-02-26T06:04:46;99721.72;;;20.93;38.08
76973;BME280;65907;53.640;10.050;2024-02-26T06:07:12;99714.06;;;20.91;38.12
76973;BME280;65907;53.640;10.050;2024-02-26T06:09:37;99721.72;;;20.93;38.06
76973;BME280;65907;53.640;10.050;2024-02-26T06:12:02;99718.75;;;20.88;38.02
76973;BME280;65907;53.640;10.050;2024-02-26T06:14:27;99724.50;;;20.91;38.20
76973;BME280;65907;53.640;10.050;2024-02-26T06:16:53;99726.28;;;20.91;38.06
76973;BME280;65907;53.640;10.050;2024-02-26T06:19:20;99723.84;;;20.89;38.05
76973;BME280;65907;53.640;10.050;2024-02-26T06:21:45;99728.25;;;20.89;38.13
76973;BME280;65907;53.640;10.050;2024-02-26T06:24:13;99732.19;;;20.93;37.91
76973;BME280;65907;53.640;10.050;2024-02-26T06:26:38;99725.63;;;20.89;37.92
76973;BME280;65907;53.640;10.050;2024-02-26T06:29:03;99731.16;;;20.86;37.89
76973;BME280;65907;53.640;10.050;2024-02-26T06:31:28;99735.84;;;20.82;37.95
76973;BME280;65907;53.640;10.050;2024-02-26T06:33:54;99741.63;;;20.86;38.09
76973;BME280;65907;53.640;10.050;2024-02-26T06:36:24;99748.91;;;20.82;37.96
76973;BME280;65907;53.640;10.050;2024-02-26T06:38:50;99756.75;;;20.82;38.28
76973;BME280;65907;53.640;10.050;2024-02-26T06:41:16;99761.00;;;20.83;37.93
76973;BME280;65907;53.640;10.050;2024-02-26T06:43:42;99763.94;;;20.80;37.85
76973;BME280;65907;53.640;10.050;2024-02-26T06:46:07;99765.75;;;20.80;37.99
76973;BME280;65907;53.640;10.050;2024-02-26T06:48:32;99773.56;;;20.80;37.79
76973;BME280;65907;53.640;10.050;2024-02-26T06:50:57;99784.69;;;20.82;38.07
76973;BME280;65907;53.640;10.050;2024-02-26T06:53:23;99784.69;;;20.82;38.02
76973;BME280;65907;53.640;10.050;2024-02-26T06:55:48;99797.28;;;20.86;38.14
76973;BME280;65907;53.640;10.050;2024-02-26T06:58:15;99792.53;;;20.82;38.08
76973;BME280;65907;53.640;10.050;2024-02-26T07:00:40;99799.53;;;20.81;38.14
76973;BME280;65907;53.640;10.050;2024-02-26T07:03:05;99792.13;;;20.76;38.20
76973;BME280;65907;53.640;10.050;2024-02-26T07:05:30;99799.13;;;20.76;37.14
76973;BME280;65907;53.640;10.050;2024-02-26T07:07:56;99798.59;;;20.72;37.86
76973;BME280;65907;53.640;10.050;2024-02-26T07:10:21;99808.25;;;20.72;38.04
76973;BME280;65907;53.640;10.050;2024-02-26T07:12:46;99811.22;;;20.77;38.07
76973;BME280;65907;53.640;10.050;2024-02-26T07:15:11;99818.00;;;20.80;37.69
76973;BME280;65907;53.640;10.050;2024-02-26T07:17:37;99819.63;;;20.81;37.85
76973;BME280;65907;53.640;10.050;2024-02-26T07:20:02;99815.06;;;20.83;37.86
76973;BME280;65907;53.640;10.050;2024-02-26T07:22:30;99819.63;;;20.81;38.03
76973;BME280;65907;53.640;10.050;2024-02-26T07:24:56;99821.28;;;20.82;38.00
76973;BME280;65907;53.640;10.050;2024-02-26T07:27:21;99817.03;;;20.81;37.93
76973;BME280;65907;53.640;10.050;2024-02-26T07:29:46;99818.50;;;20.83;38.01
76973;BME280;65907;53.640;10.050;2024-02-26T07:32:12;99818.06;;;20.88;38.08
76973;BME280;65907;53.640;10.050;2024-02-26T07:34:37;99814.47;;;20.89;37.98
76973;BME280;65907;53.640;10.050;2024-02-26T07:37:07;99811.06;;;20.88;37.88
76973;BME280;65907;53.640;10.050;2024-02-26T07:39:32;99811.84;;;20.89;37.85
76973;BME280;65907;53.640;10.050;2024-02-26T07:42:00;99816.28;;;20.88;38.33
76973;BME280;65907;53.640;10.050;2024-02-26T07:44:25;99819.69;;;20.89;38.41
76973;BME280;65907;53.640;10.050;2024-02-26T07:46:50;99820.38;;;20.91;38.49
76973;BME280;65907;53.640;10.050;2024-02-26T07:49:15;99828.75;;;20.95;38.42
76973;BME280;65907;53.640;10.050;2024-02-26T07:51:43;99825.28;;;20.94;38.73
76973;BME280;65907;53.640;10.050;2024-02-26T07:54:08;99823.34;;;20.96;38.63
76973;BME280;65907;53.640;10.050;2024-02-26T07:56:33;99824.19;;;20.97;38.48
76973;BME280;65907;53.640;10.050;2024-02-26T07:58:58;99825.69;;;20.99;38.70
76973;BME280;65907;53.640;10.050;2024-02-26T08:01:24;99821.41;;;20.98;38.47
76973;BME280;65907;53.640;10.050;2024-02-26T08:03:52;99828.44;;;20.98;38.82
76973;BME280;65907;53.640;10.050;2024-02-26T08:06:17;99830.91;;;20.99;38.83
76973;BME280;65907;53.640;10.050;2024-02-26T08:08:42;99834.34;;;21.00;38.77
76973;BME280;65907;53.640;10.050;2024-02-26T08:11:08;99830.06;;;20.99;38.79
76973;BME280;65907;53.640;10.050;2024-02-26T08:13:34;99834.47;;;20.98;39.24
76973;BME280;65907;53.640;10.050;2024-02-26T08:15:59;99834.47;;;20.98;39.30
76973;BME280;65907;53.640;10.050;2024-02-26T08:18:27;99837.09;;;20.98;39.56
76973;BME280;65907;53.640;10.050;2024-02-26T08:20:52;99837.91;;;20.99;39.42
76973;BME280;65907;53.640;10.050;2024-02-26T08:23:20;99834.63;;;20.97;39.82
76973;BME280;65907;53.640;10.050;2024-02-26T08:25:45;99837.91;;;20.99;39.66
76973;BME280;65907;53.640;10.050;2024-02-26T08:28:10;99833.53;;;20.99;39.62
76973;BME280;65907;53.640;10.050;2024-02-26T08:30:39;99829.25;;;20.98;39.74
76973;BME280;65907;53.640;10.050;2024-02-26T08:33:06;99829.25;;;20.98;39.93
76973;BME280;65907;53.640;10.050;2024-02-26T08:35:31;99826.78;;;20.97;40.07
76973;BME280;65907;53.640;10.050;2024-02-26T08:37:57;99832.81;;;20.97;39.58
76973;BME280;65907;53.640;10.050;2024-02-26T08:40:24;99829.41;;;20.97;39.93
76973;BME280;65907;53.640;10.050;2024-02-26T08:42:49;99827.59;;;20.97;40.19
76973;BME280;65907;53.640;10.050;2024-02-26T08:45:15;99831.06;;;20.98;40.04
76973;BME280;65907;53.640;10.050;2024-02-26T08:47:40;99837.09;;;20.98;40.04
76973;BME280;65907;53.640;10.050;2024-02-26T08:50:06;99836.94;;;21.00;40.26
76973;BME280;65907;53.640;10.050;2024-02-26T08:52:31;99835.44;;;20.97;40.11
76973;BME280;65907;53.640;10.050;2024-02-26T08:54:59;99835.59;;;20.96;40.33
76973;BME280;65907;53.640;10.050;2024-02-26T08:57:24;99841.94;;;20.93;40.14
76973;BME280;65907;53.640;10.050;2024-02-26T08:59:52;99837.56;;;20.94;40.22
76973;BME280;65907;53.640;10.050;2024-02-26T09:02:17;99833.13;;;20.94;39.78
76973;BME280;65907;53.640;10.050;2024-02-26T09:04:44;99838.53;;;20.92;39.90
76973;BME280;65907;53.640;10.050;2024-02-26T09:07:09;99836.03;;;20.91;39.66
76973;BME280;65907;53.640;10.050;2024-02-26T09:09:35;99831.00;;;20.89;39.82
76973;BME280;65907;53.640;10.050;2024-02-26T09:12:00;99831.66;;;20.91;39.77
76973;BME280;65907;53.640;10.050;2024-02-26T09:14:26;99833.44;;;20.91;39.85
76973;BME280;65907;53.640;10.050;2024-02-26T09:16:51;99833.44;;;20.91;39.45
76973;BME280;65907;53.640;10.050;2024-02-26T09:19:19;99838.81;;;20.89;39.61
76973;BME280;65907;53.640;10.050;2024-02-26T09:21:44;99844.06;;;20.89;39.52
76973;BME280;65907;53.640;10.050;2024-02-26T09:24:10;99837.19;;;20.88;39.62
76973;BME280;65907;53.640;10.050;2024-02-26T09:26:36;99842.41;;;20.88;39.47
76973;BME280;65907;53.640;10.050;2024-02-26T09:29:01;99856.41;;;20.87;39.65
76973;BME280;65907;53.640;10.050;2024-02-26T09:31:26;99854.63;;;20.88;39.50
76973;BME280;65907;53.640;10.050;2024-02-26T09:33:52;99862.34;;;20.89;39.57
76973;BME280;65907;53.640;10.050;2024-02-26T09:36:17;99858.59;;;20.92;39.61
76973;BME280;65907;53.640;10.050;2024-02-26T09:38:42;99869.03;;;20.92;39.59
76973;BME280;65907;53.640;10.050;2024-02-26T09:41:07;99855.31;;;20.90;39.78
76973;BME280;65907;53.640;10.050;2024-02-26T09:43:38;99863.16;;;20.90;39.75
76973;BME280;65907;53.640;10.050;2024-02-26T09:46:07;99864.13;;;20.89;39.85
76973;BME280;65907;53.640;10.050;2024-02-26T09:48:33;99870.69;;;20.93;39.57
76973;BME280;65907;53.640;10.050;2024-02-26T09:50:59;99869.72;;;20.94;39.81
76973;BME280;65907;53.640;10.050;2024-02-26T09:53:26;99870.56;;;20.95;39.83
76973;BME280;65907;53.640;10.050;2024-02-26T09:55:56;99877.56;;;20.94;40.04
76973;BME280;65907;53.640;10.050;2024-02-26T09:58:22;99875.78;;;20.95;39.84
76973;BME280;65907;53.640;10.050;2024-02-26T10:00:49;99881.13;;;20.93;40.36
76973;BME280;65907;53.640;10.050;2024-02-26T10:03:17;99888.00;;;20.94;40.12
76973;BME280;65907;53.640;10.050;2024-02-26T10:05:45;99888.53;;;20.98;40.21
76973;BME280;65907;53.640;10.050;2024-02-26T10:08:11;99894.56;;;20.98;40.21
76973;BME280;65907;53.640;10.050;2024-02-26T10:10:37;99901.47;;;20.99;40.20
76973;BME280;65907;53.640;10.050;2024-02-26T10:13:04;99897.19;;;20.98;40.24
76973;BME280;65907;53.640;10.050;2024-02-26T10:15:35;99897.50;;;20.95;40.40
76973;BME280;65907;53.640;10.050;2024-02-26T10:18:03;99905.03;;;20.98;40.32
76973;BME280;65907;53.640;10.050;2024-02-26T10:20:28;99917.16;;;20.99;40.50
76973;BME280;65907;53.640;10.050;2024-02-26T10:22:53;99911.22;;;20.97;40.31
76973;BME280;65907;53.640;10.050;2024-02-26T10:25:19;99914.69;;;20.98;40.48
76973;BME280;65907;53.640;10.050;2024-02-26T10:27:45;99912.88;;;20.98;40.44
76973;BME280;65907;53.640;10.050;2024-02-26T10:32:41;99919.06;;;20.97;40.81
76973;BME280;65907;53.640;10.050;2024-02-26T10:35:12;99920.72;;;20.98;40.71
76973;BME280;65907;53.640;10.050;2024-02-26T10:37:37;99916.47;;;20.97;40.57
76973;BME280;65907;53.640;10.050;2024-02-26T10:40:02;99921.84;;;20.96;40.85
76973;BME280;65907;53.640;10.050;2024-02-26T10:42:28;99923.50;;;20.97;40.50
76973;BME280;65907;53.640;10.050;2024-02-26T10:44:53;99921.84;;;20.96;40.88
76973;BME280;65907;53.640;10.050;2024-02-26T10:47:21;99920.03;;;20.96;40.78
76973;BME280;65907;53.640;10.050;2024-02-26T10:49:46;99927.06;;;20.96;40.39
76973;BME280;65907;53.640;10.050;2024-02-26T10:52:13;99928.03;;;20.95;40.74
76973;BME280;65907;53.640;10.050;2024-02-26T10:54:41;99933.28;;;20.95;40.89
76973;BME280;65907;53.640;10.050;2024-02-26T10:57:09;99936.69;;;20.95;40.37
76973;BME280;65907;53.640;10.050;2024-02-26T10:59:35;99933.41;;;20.93;40.67
76973;BME280;65907;53.640;10.050;2024-02-26T11:02:01;99927.66;;;20.89;40.60
76973;BME280;65907;53.640;10.050;2024-02-26T11:04:29;99927.66;;;20.89;40.60
76973;BME280;65907;53.640;10.050;2024-02-26T11:06:56;99928.78;;;20.87;40.71
76973;BME280;65907;53.640;10.050;2024-02-26T11:09:22;99921.91;;;20.86;40.84
76973;BME280;65907;53.640;10.050;2024-02-26T11:11:47;99923.84;;;20.84;40.91
76973;BME280;65907;53.640;10.050;2024-02-26T11:14:13;99918.75;;;20.82;40.89
76973;BME280;65907;53.640;10.050;2024-02-26T11:16:39;99919.72;;;20.81;40.80
76973;BME280;65907;53.640;10.050;2024-02-26T11:19:06;99918.09;;;20.80;40.74
76973;BME280;65907;53.640;10.050;2024-02-26T11:21:33;99918.09;;;20.80;40.92
76973;BME280;65907;53.640;10.050;2024-02-26T11:24:07;99921.63;;;20.79;40.96
76973;BME280;65907;53.640;10.050;2024-02-26T11:26:38;99920.00;;;20.78;40.84
76973;BME280;65907;53.640;10.050;2024-02-26T11:29:08;99911.34;;;20.77;40.82
76973;BME280;65907;53.640;10.050;2024-02-26T11:31:35;99918.22;;;20.78;40.62
76973;BME280;65907;53.640;10.050;2024-02-26T11:34:01;99919.19;;;20.77;40.66
76973;BME280;65907;53.640;10.050;2024-02-26T11:36:27;99909.53;;;20.78;41.02
76973;BME280;65907;53.640;10.050;2024-02-26T11:38:53;99918.34;;;20.77;40.66
76973;BME280;65907;53.640;10.050;2024-02-26T11:41:20;99919.19;;;20.77;40.94
76973;BME280;65907;53.640;10.050;2024-02-26T11:43:52;99915.72;;;20.77;40.75
76973;BME280;65907;53.640;10.050;2024-02-26T11:46:32;99918.47;;;20.75;40.92
76973;BME280;65907;53.640;10.050;2024-02-26T11:48:59;99919.31;;;20.76;40.74
76973;BME280;65907;53.640;10.050;2024-02-26T11:51:26;99915.06;;;20.75;40.56
76973;BME280;65907;53.640;10.050;2024-02-26T11:53:52;99913.25;;;20.75;40.74
76973;BME280;65907;53.640;10.050;2024-02-26T11:59:09;99931.53;;;20.75;40.89
76973;BME280;65907;53.640;10.050;2024-02-26T12:01:38;99925.50;;;20.75;40.83
76973;BME280;65907;53.640;10.050;2024-02-26T12:04:11;99934.16;;;20.75;40.63
76973;BME280;65907;53.640;10.050;2024-02-26T12:06:43;99926.47;;;20.74;40.76
76973;BME280;65907;53.640;10.050;2024-02-26T12:09:09;99920.28;;;20.75;40.47
76973;BME280;65907;53.640;10.050;2024-02-26T12:11:37;99932.81;;;20.71;40.75
76973;BME280;65907;53.640;10.050;2024-02-26T12:14:03;99940.50;;;20.73;40.44
76973;BME280;65907;53.640;10.050;2024-02-26T12:17:02;99939.53;;;20.74;40.69
76973;BME280;65907;53.640;10.050;2024-02-26T12:19:20;99943.94;;;20.73;40.70
76973;BME280;65907;53.640;10.050;2024-02-26T12:21:52;99950.13;;;20.72;40.69
76973;BME280;65907;53.640;10.050;2024-02-26T12:24:20;99943.94;;;20.73;40.74
76973;BME280;65907;53.640;10.050;2024-02-26T12:26:46;99956.19;;;20.73;40.77
76973;BME280;65907;53.640;10.050;2024-02-26T12:29:11;99958.94;;;20.71;40.48
76973;BME280;65907;53.640;10.050;2024-02-26T12:31:37;99958.25;;;20.69;40.64
76973;BME280;65907;53.640;10.050;2024-02-26T12:34:03;99958.94;;;20.71;40.70
76973;BME280;65907;53.640;10.050;2024-02-26T12:36:29;99956.31;;;20.71;40.59
76973;BME280;65907;53.640;10.050;2024-02-26T12:38:54;99951.63;;;20.75;40.92
76973;BME280;65907;53.640;10.050;2024-02-26T12:41:20;99950.81;;;20.74;40.81
76973;BME280;65907;53.640;10.050;2024-02-26T12:43:46;99949.84;;;20.75;40.81
76973;BME280;65907;53.640;10.050;2024-02-26T12:46:13;99947.75;;;20.79;40.84
76973;BME280;65907;53.640;10.050;2024-02-26T12:48:42;99951.91;;;20.82;40.76
76973;BME280;65907;53.640;10.050;2024-02-26T12:51:07;99959.75;;;20.82;40.77